createdAt,value
2017-08-31T00:00:05.112Z,0
2017-08-31T00:01:04.824Z,0
2017-08-31T00:03:05.170Z,0
2017-08-31T00:04:05.207Z,0
2017-08-31T00:05:19.856Z,0
2017-08-31T00:06:05.234Z,0
2017-08-31T00:07:05.278Z,0
2017-08-31T00:08:05.301Z,0
2017-08-31T00:09:05.348Z,0
2017-08-31T00:10:19.964Z,0
2017-08-31T00:11:05.394Z,0
2017-08-31T00:12:05.394Z,0
2017-08-31T00:13:05.436Z,0
2017-08-31T00:14:05.462Z,0
2017-08-31T00:15:05.476Z,0
2017-08-31T00:16:19.809Z,0
2017-08-31T00:17:05.232Z,0
2017-08-31T00:18:05.593Z,0
2017-08-31T00:19:05.604Z,0
2017-08-31T00:20:05.292Z,0
2017-08-31T00:21:20.247Z,0
2017-08-31T00:22:05.342Z,0
2017-08-31T00:23:20.316Z,0
2017-08-31T00:24:05.715Z,0
2017-08-31T00:25:05.995Z,0
2017-08-31T00:26:05.764Z,0
2017-08-31T00:27:05.840Z,0
2017-08-31T00:28:05.816Z,0
2017-08-31T00:29:20.460Z,0
2017-08-31T00:30:05.874Z,0
2017-08-31T00:31:05.881Z,0
2017-08-31T00:32:20.537Z,0
2017-08-31T00:33:05.643Z,0
2017-08-31T00:34:05.663Z,0
2017-08-31T00:35:06.288Z,0
2017-08-31T00:36:06.025Z,0
2017-08-31T00:37:20.666Z,0
2017-08-31T00:38:06.082Z,0
2017-08-31T00:39:06.097Z,0
2017-08-31T00:40:06.145Z,0
2017-08-31T00:41:20.767Z,0
2017-08-31T00:42:06.191Z,0
2017-08-31T00:43:20.814Z,0
2017-08-31T00:44:06.236Z,0
2017-08-31T00:47:20.906Z,0
2017-08-31T00:48:06.309Z,0
2017-08-31T00:49:06.361Z,0
2017-08-31T00:50:06.370Z,0
2017-08-31T00:51:06.420Z,0
2017-08-31T00:52:06.424Z,0
2017-08-31T00:53:21.072Z,0
2017-08-31T00:54:06.475Z,0
2017-08-31T00:55:06.504Z,0
2017-08-31T00:56:21.157Z,0
2017-08-31T00:57:06.592Z,0
2017-08-31T00:58:06.271Z,0
2017-08-31T01:00:06.628Z,0
2017-08-31T01:01:21.281Z,0
2017-08-31T01:02:06.379Z,0
2017-08-31T01:03:21.003Z,0
2017-08-31T01:04:06.434Z,0
2017-08-31T01:05:06.770Z,0
2017-08-31T01:06:06.498Z,0
2017-08-31T01:07:06.816Z,0
2017-08-31T01:08:21.140Z,0
2017-08-31T01:09:21.467Z,0
2017-08-31T01:10:06.893Z,0
2017-08-31T01:11:06.907Z,0
2017-08-31T01:12:06.945Z,0
2017-08-31T01:13:06.979Z,0
2017-08-31T01:14:06.682Z,0
2017-08-31T01:16:07.054Z,0
2017-08-31T01:17:07.064Z,0
2017-08-31T01:18:06.772Z,0
2017-08-31T01:19:07.110Z,0
2017-08-31T01:20:21.777Z,0
2017-08-31T01:21:07.175Z,0
2017-08-31T01:22:07.191Z,0
2017-08-31T01:23:07.218Z,0
2017-08-31T01:25:07.282Z,0
2017-08-31T01:26:07.287Z,0
2017-08-31T01:27:07.033Z,0
2017-08-31T01:28:07.349Z,0
2017-08-31T01:29:07.368Z,0
2017-08-31T01:30:07.419Z,0
2017-08-31T01:31:07.422Z,0
2017-08-31T01:32:07.447Z,0
2017-08-31T01:34:07.501Z,0
2017-08-31T01:35:07.251Z,0
2017-08-31T01:36:07.239Z,0
2017-08-31T01:37:21.868Z,0
2017-08-31T01:38:07.595Z,0
2017-08-31T01:39:07.300Z,0
2017-08-31T01:40:22.270Z,0
2017-08-31T01:41:07.389Z,0
2017-08-31T01:42:07.401Z,0
2017-08-31T01:43:07.411Z,0
2017-08-31T01:44:22.372Z,0
2017-08-31T01:45:07.477Z,0
2017-08-31T01:46:22.418Z,0
2017-08-31T01:47:07.842Z,0
2017-08-31T01:48:07.853Z,0
2017-08-31T01:49:07.939Z,0
2017-08-31T01:50:07.900Z,0
2017-08-31T01:51:07.312Z,0
2017-08-31T01:52:07.941Z,0
2017-08-31T01:53:07.993Z,0
2017-08-31T01:54:08.059Z,0
2017-08-31T01:55:22.341Z,0
2017-08-31T01:56:22.682Z,0
2017-08-31T01:57:08.067Z,0
2017-08-31T01:58:08.128Z,0
2017-08-31T01:59:08.118Z,0
2017-08-31T02:00:07.852Z,0
2017-08-31T02:01:22.787Z,0
2017-08-31T02:02:07.901Z,0
2017-08-31T02:03:08.203Z,0
2017-08-31T02:04:08.248Z,0
2017-08-31T02:05:07.968Z,0
2017-08-31T02:06:08.308Z,0
2017-08-31T02:07:07.699Z,0
2017-08-31T02:08:22.977Z,0
2017-08-31T02:09:08.374Z,0
2017-08-31T02:11:08.452Z,0
2017-08-31T02:12:23.062Z,0
2017-08-31T02:13:08.509Z,0
2017-08-31T02:14:08.499Z,0
2017-08-31T02:15:23.157Z,0
2017-08-31T02:16:08.579Z,0
2017-08-31T02:17:08.602Z,0
2017-08-31T02:18:08.293Z,0
2017-08-31T02:19:23.262Z,0
2017-08-31T02:20:23.284Z,0
2017-08-31T02:21:08.700Z,0
2017-08-31T02:22:08.714Z,0
2017-08-31T02:23:08.752Z,0
2017-08-31T02:24:08.746Z,0
2017-08-31T02:25:08.793Z,0
2017-08-31T02:26:08.832Z,0
2017-08-31T02:28:23.495Z,0
2017-08-31T02:29:08.909Z,0
2017-08-31T02:30:08.918Z,0
2017-08-31T02:31:08.939Z,0
2017-08-31T02:33:08.993Z,0
2017-08-31T02:34:09.029Z,0
2017-08-31T02:35:09.040Z,0
2017-08-31T02:36:09.088Z,0
2017-08-31T02:37:09.095Z,0
2017-08-31T02:38:08.814Z,0
2017-08-31T02:39:09.160Z,0
2017-08-31T02:40:09.192Z,0
2017-08-31T02:41:09.198Z,0
2017-08-31T02:42:09.213Z,0
2017-08-31T02:43:23.871Z,0
2017-08-31T02:44:09.291Z,0
2017-08-31T02:45:09.002Z,0
2017-08-31T02:46:09.314Z,0
2017-08-31T02:47:09.358Z,0
2017-08-31T02:48:09.383Z,0
2017-08-31T02:49:24.023Z,0
2017-08-31T02:50:09.416Z,0
2017-08-31T02:51:09.463Z,0
2017-08-31T02:52:09.498Z,0
2017-08-31T02:53:09.502Z,0
2017-08-31T02:54:09.529Z,0
2017-08-31T02:55:09.545Z,0
2017-08-31T02:56:24.208Z,0
2017-08-31T02:57:09.633Z,0
2017-08-31T02:58:09.635Z,0
2017-08-31T02:59:09.677Z,0
2017-08-31T03:00:09.681Z,0
2017-08-31T03:01:09.709Z,0
2017-08-31T03:02:09.733Z,0
2017-08-31T03:03:09.777Z,0
2017-08-31T03:04:09.827Z,0
2017-08-31T03:05:09.806Z,0
2017-08-31T03:06:09.843Z,0
2017-08-31T03:07:09.876Z,0
2017-08-31T03:08:09.890Z,0
2017-08-31T03:10:09.960Z,0
2017-08-31T03:11:09.641Z,0
2017-08-31T03:12:10.047Z,0
2017-08-31T03:14:10.053Z,0
2017-08-31T03:15:24.703Z,0
2017-08-31T03:17:09.830Z,0
2017-08-31T03:18:09.832Z,0
2017-08-31T03:19:10.181Z,0
2017-08-31T03:20:09.898Z,0
2017-08-31T03:21:10.228Z,0
2017-08-31T03:22:09.953Z,0
2017-08-31T03:23:10.295Z,0
2017-08-31T03:24:09.988Z,0
2017-08-31T03:25:10.342Z,0
2017-08-31T03:26:10.365Z,0
2017-08-31T03:27:24.679Z,0
2017-08-31T03:28:10.395Z,0
2017-08-31T03:29:10.437Z,0
2017-08-31T03:30:10.484Z,0
2017-08-31T03:31:25.105Z,0
2017-08-31T03:32:10.494Z,0
2017-08-31T03:33:10.222Z,0
2017-08-31T03:34:10.564Z,0
2017-08-31T03:35:10.281Z,0
2017-08-31T03:36:10.594Z,0
2017-08-31T03:37:24.939Z,0
2017-08-31T03:38:10.366Z,0
2017-08-31T03:39:25.287Z,0
2017-08-31T03:40:10.726Z,0
2017-08-31T03:41:10.736Z,0
2017-08-31T03:42:25.365Z,0
2017-08-31T03:43:10.781Z,0
2017-08-31T03:45:10.865Z,0
2017-08-31T03:46:10.866Z,0
2017-08-31T03:47:25.508Z,0
2017-08-31T03:48:10.592Z,0
2017-08-31T03:49:25.541Z,0
2017-08-31T03:50:10.976Z,0
2017-08-31T03:51:10.993Z,0
2017-08-31T03:52:10.712Z,0
2017-08-31T03:53:11.046Z,0
2017-08-31T03:54:10.747Z,0
2017-08-31T03:55:11.100Z,4
2017-08-31T03:56:25.736Z,0
2017-08-31T03:57:25.748Z,0
2017-08-31T03:58:10.869Z,4
2017-08-31T04:00:10.929Z,4
2017-08-31T04:01:11.239Z,8
2017-08-31T04:02:11.286Z,8
2017-08-31T04:03:25.923Z,12
2017-08-31T04:04:11.016Z,16
2017-08-31T04:05:11.377Z,12
2017-08-31T04:06:11.396Z,12
2017-08-31T04:08:11.440Z,12
2017-08-31T04:09:26.056Z,16
2017-08-31T04:10:11.487Z,16
2017-08-31T04:11:26.105Z,16
2017-08-31T04:12:11.231Z,20
2017-08-31T04:13:11.561Z,20
2017-08-31T04:14:10.637Z,20
2017-08-31T04:15:11.623Z,24
2017-08-31T04:16:11.625Z,28
2017-08-31T04:17:11.671Z,28
2017-08-31T04:18:26.299Z,36
2017-08-31T04:19:11.725Z,40
2017-08-31T04:20:11.747Z,48
2017-08-31T04:21:11.776Z,60
2017-08-31T04:22:11.795Z,68
2017-08-31T04:23:11.822Z,76
2017-08-31T04:24:11.827Z,88
2017-08-31T04:25:11.881Z,100
2017-08-31T04:26:11.886Z,108
2017-08-31T04:27:11.896Z,120
2017-08-31T04:28:11.631Z,128
2017-08-31T04:29:11.980Z,136
2017-08-31T04:30:11.366Z,152
2017-08-31T04:31:12.008Z,164
2017-08-31T04:32:12.059Z,180
2017-08-31T04:33:11.764Z,200
2017-08-31T04:34:26.708Z,224
2017-08-31T04:35:11.789Z,240
2017-08-31T04:36:11.852Z,260
2017-08-31T04:37:12.179Z,280
2017-08-31T04:38:26.497Z,304
2017-08-31T04:40:12.238Z,332
2017-08-31T04:42:12.272Z,348
2017-08-31T04:43:26.945Z,368
2017-08-31T04:44:12.357Z,384
2017-08-31T04:45:12.368Z,404
2017-08-31T04:46:12.416Z,436
2017-08-31T04:47:12.117Z,468
2017-08-31T04:48:12.442Z,512
2017-08-31T04:49:12.505Z,556
2017-08-31T04:50:27.102Z,616
2017-08-31T04:51:12.261Z,656
2017-08-31T04:52:12.230Z,720
2017-08-31T04:53:12.273Z,780
2017-08-31T04:54:12.305Z,856
2017-08-31T04:55:12.332Z,936
2017-08-31T04:56:12.656Z,1024
2017-08-31T04:57:12.358Z,1116
2017-08-31T04:58:12.702Z,1220
2017-08-31T04:59:12.426Z,1316
2017-08-31T05:00:12.449Z,1404
2017-08-31T05:01:12.474Z,1492
2017-08-31T05:03:12.216Z,1656
2017-08-31T05:04:12.859Z,1748
2017-08-31T05:05:12.889Z,1828
2017-08-31T05:06:27.531Z,1916
2017-08-31T05:08:12.637Z,2024
2017-08-31T05:09:12.988Z,2092
2017-08-31T05:10:27.310Z,2184
2017-08-31T05:11:13.052Z,2256
2017-08-31T05:12:13.076Z,2360
2017-08-31T05:13:13.118Z,2488
2017-08-31T05:14:13.101Z,2640
2017-08-31T05:15:12.826Z,2828
2017-08-31T05:16:12.542Z,3036
2017-08-31T05:19:13.243Z,3740
2017-08-31T05:20:13.272Z,3972
2017-08-31T05:22:27.943Z,4520
2017-08-31T05:23:13.348Z,4704
2017-08-31T05:24:13.398Z,4916
2017-08-31T05:26:13.437Z,5252
2017-08-31T05:27:13.450Z,5392
2017-08-31T05:28:13.488Z,5516
2017-08-31T05:29:13.187Z,5632
2017-08-31T05:30:13.548Z,5740
2017-08-31T05:32:13.580Z,5940
2017-08-31T05:33:13.603Z,6096
2017-08-31T05:34:28.247Z,6360
2017-08-31T05:35:13.660Z,6568
2017-08-31T05:36:13.382Z,6788
2017-08-31T05:37:13.737Z,7032
2017-08-31T05:38:28.047Z,7648
2017-08-31T05:39:13.756Z,8316
2017-08-31T05:40:28.412Z,8628
2017-08-31T05:41:13.817Z,8724
2017-08-31T05:42:13.844Z,8004
2017-08-31T05:43:13.581Z,7060
2017-08-31T05:44:13.581Z,6784
2017-08-31T05:46:14.014Z,6692
2017-08-31T05:47:13.982Z,6720
2017-08-31T05:48:14.000Z,6756
2017-08-31T05:49:14.004Z,6892
2017-08-31T05:50:14.059Z,7164
2017-08-31T05:51:14.058Z,7336
2017-08-31T05:52:14.106Z,7660
2017-08-31T05:53:28.742Z,7468
2017-08-31T05:54:28.784Z,7564
2017-08-31T05:55:14.187Z,8080
2017-08-31T05:56:28.519Z,8492
2017-08-31T05:57:14.241Z,9008
2017-08-31T05:58:28.867Z,10132
2017-08-31T05:59:14.275Z,10892
2017-08-31T06:00:14.319Z,14068
2017-08-31T06:01:14.361Z,19616
2017-08-31T06:02:14.376Z,17792
2017-08-31T06:03:29.012Z,13716
2017-08-31T06:04:14.431Z,12336
2017-08-31T06:05:14.442Z,20736
2017-08-31T06:06:29.111Z,17120
2017-08-31T06:07:14.497Z,21152
2017-08-31T06:08:14.228Z,25696
2017-08-31T06:09:14.238Z,22592
2017-08-31T06:10:14.261Z,27776
2017-08-31T06:11:14.305Z,23264
2017-08-31T06:12:14.329Z,17184
2017-08-31T06:14:14.401Z,35744
2017-08-31T06:15:14.394Z,42080
2017-08-31T06:16:14.772Z,42880
2017-08-31T06:17:14.751Z,44992
2017-08-31T06:18:14.809Z,38272
2017-08-31T06:19:14.530Z,26496
2017-08-31T06:20:14.874Z,44096
2017-08-31T06:21:14.583Z,50144
2017-08-31T06:22:14.928Z,50240
2017-08-31T06:23:14.941Z,50400
2017-08-31T06:24:14.662Z,51168
2017-08-31T06:25:29.633Z,51296
2017-08-31T06:26:15.032Z,51168
2017-08-31T06:27:14.762Z,52960
2017-08-31T06:28:14.838Z,53344
2017-08-31T06:29:29.762Z,51424
2017-08-31T06:30:15.152Z,49824
2017-08-31T06:31:14.896Z,46688
2017-08-31T06:32:15.236Z,47968
2017-08-31T06:34:14.979Z,50528
2017-08-31T06:35:15.333Z,51360
2017-08-31T06:36:15.342Z,49024
2017-08-31T06:37:15.087Z,46208
2017-08-31T06:38:15.703Z,42336
2017-08-31T06:39:15.457Z,28544
2017-08-31T06:40:15.468Z,22784
2017-08-31T06:41:29.839Z,24800
2017-08-31T06:42:15.550Z,27616
2017-08-31T06:43:15.602Z,29312
2017-08-31T06:44:15.614Z,27072
2017-08-31T06:45:15.346Z,28608
2017-08-31T06:46:15.683Z,23360
2017-08-31T06:47:15.722Z,23136
2017-08-31T06:48:15.775Z,28640
2017-08-31T06:49:15.794Z,39392
2017-08-31T06:50:15.833Z,42944
2017-08-31T06:51:15.846Z,43104
2017-08-31T06:52:15.899Z,45888
2017-08-31T06:53:15.910Z,46208
2017-08-31T06:54:15.975Z,46240
2017-08-31T06:55:15.668Z,46720
2017-08-31T06:56:15.719Z,45152
2017-08-31T06:57:30.343Z,47040
2017-08-31T06:58:15.757Z,44160
2017-08-31T06:59:15.803Z,31616
2017-08-31T07:00:16.133Z,23520
2017-08-31T07:01:16.176Z,38944
2017-08-31T07:02:16.226Z,49696
2017-08-31T07:03:16.250Z,48512
2017-08-31T07:04:16.280Z,43872
2017-08-31T07:05:16.302Z,40032
2017-08-31T07:06:16.358Z,48608
2017-08-31T07:07:16.379Z,45280
2017-08-31T07:08:16.418Z,45504
2017-08-31T07:09:16.455Z,44800
2017-08-31T07:10:16.174Z,45120
2017-08-31T07:11:31.142Z,50944
2017-08-31T07:12:16.234Z,50272
2017-08-31T07:13:31.207Z,48480
2017-08-31T07:14:16.624Z,50464
2017-08-31T07:15:16.660Z,53056
2017-08-31T07:16:16.687Z,53728
2017-08-31T07:17:16.732Z,52960
2017-08-31T07:18:16.765Z,50688
2017-08-31T07:19:16.795Z,52832
2017-08-31T07:21:16.826Z,53664
2017-08-31T07:22:16.895Z,48960
2017-08-31T07:23:16.909Z,49440
2017-08-31T07:24:16.657Z,49024
2017-08-31T07:25:17.000Z,56864
2017-08-31T07:26:17.043Z,55936
2017-08-31T07:27:31.671Z,53728
2017-08-31T07:28:31.418Z,54496
2017-08-31T07:29:17.147Z,53440
2017-08-31T07:30:16.858Z,52512
2017-08-31T07:31:17.216Z,47104
2017-08-31T07:32:17.250Z,51264
2017-08-31T07:33:17.279Z,52544
2017-08-31T07:34:17.339Z,52832
2017-08-31T07:36:17.083Z,52416
2017-08-31T07:37:17.418Z,51328
2017-08-31T07:38:32.061Z,52000
2017-08-31T07:39:17.502Z,50496
2017-08-31T07:40:17.220Z,48864
2017-08-31T07:42:17.611Z,48384
2017-08-31T07:43:17.619Z,46624
2017-08-31T07:44:17.688Z,47616
2017-08-31T07:45:17.720Z,51040
2017-08-31T07:46:17.446Z,51008
2017-08-31T07:47:17.780Z,50464
2017-08-31T07:48:17.824Z,52576
2017-08-31T07:49:17.871Z,52000
2017-08-31T07:51:17.632Z,49760
2017-08-31T07:52:17.967Z,49728
2017-08-31T07:53:18.010Z,50752
2017-08-31T07:54:17.728Z,50496
2017-08-31T07:55:18.073Z,50176
2017-08-31T07:56:18.099Z,48768
2017-08-31T07:57:18.138Z,49152
2017-08-31T07:58:17.909Z,48064
2017-08-31T07:59:18.227Z,47744
2017-08-31T08:00:32.868Z,39424
2017-08-31T08:02:18.331Z,47488
2017-08-31T08:03:18.036Z,48448
2017-08-31T08:04:18.423Z,48320
2017-08-31T08:05:18.411Z,46592
2017-08-31T08:06:18.476Z,45984
2017-08-31T08:07:18.517Z,48000
2017-08-31T08:08:18.243Z,46912
2017-08-31T08:09:18.577Z,44160
2017-08-31T08:10:33.222Z,48224
2017-08-31T08:11:18.661Z,48128
2017-08-31T08:12:18.366Z,47744
2017-08-31T08:13:18.714Z,47488
2017-08-31T08:14:18.434Z,46272
2017-08-31T08:15:18.784Z,45536
2017-08-31T08:16:33.432Z,43520
2017-08-31T08:17:18.866Z,44576
2017-08-31T08:18:18.895Z,45408
2017-08-31T08:19:18.621Z,45120
2017-08-31T08:20:18.975Z,44576
2017-08-31T08:21:19.015Z,42496
2017-08-31T08:22:18.729Z,42688
2017-08-31T08:23:19.090Z,40768
2017-08-31T08:24:18.797Z,41472
2017-08-31T08:25:19.171Z,42880
2017-08-31T08:26:19.193Z,41376
2017-08-31T08:27:18.929Z,39744
2017-08-31T08:28:19.236Z,38656
2017-08-31T08:29:18.978Z,38144
2017-08-31T08:30:19.355Z,37440
2017-08-31T08:31:33.659Z,38240
2017-08-31T08:32:33.716Z,38272
2017-08-31T08:33:19.140Z,36448
2017-08-31T08:35:19.205Z,24832
2017-08-31T08:36:19.548Z,23264
2017-08-31T08:37:34.213Z,23040
2017-08-31T08:38:19.622Z,22976
2017-08-31T08:39:19.706Z,22848
2017-08-31T08:40:19.376Z,22688
2017-08-31T08:41:19.728Z,22496
2017-08-31T08:42:19.430Z,22432
2017-08-31T08:43:34.400Z,22208
2017-08-31T08:44:34.461Z,22016
2017-08-31T08:46:19.610Z,21952
2017-08-31T08:47:19.952Z,21984
2017-08-31T08:48:33.980Z,21824
2017-08-31T08:49:19.712Z,21696
2017-08-31T08:50:20.050Z,21792
2017-08-31T08:51:34.695Z,21728
2017-08-31T08:52:20.135Z,21536
2017-08-31T08:53:20.142Z,20960
2017-08-31T08:54:20.191Z,20992
2017-08-31T08:55:20.235Z,20960
2017-08-31T08:56:20.282Z,21600
2017-08-31T08:57:20.321Z,21376
2017-08-31T08:58:20.066Z,20960
2017-08-31T08:59:20.384Z,20768
2017-08-31T09:00:20.399Z,13720
2017-08-31T09:01:20.466Z,13264
2017-08-31T09:02:20.466Z,20832
2017-08-31T09:03:34.820Z,21120
2017-08-31T09:04:20.572Z,20960
2017-08-31T09:05:20.596Z,20608
2017-08-31T09:06:35.236Z,20384
2017-08-31T09:08:20.704Z,20256
2017-08-31T09:09:20.724Z,14716
2017-08-31T09:10:20.769Z,13812
2017-08-31T09:11:20.808Z,13076
2017-08-31T09:12:20.844Z,12976
2017-08-31T09:16:20.968Z,12536
2017-08-31T09:17:21.020Z,15452
2017-08-31T09:18:21.047Z,11812
2017-08-31T09:19:35.706Z,11216
2017-08-31T09:20:20.794Z,18752
2017-08-31T09:21:21.175Z,14420
2017-08-31T09:22:35.788Z,14368
2017-08-31T09:23:21.223Z,20448
2017-08-31T09:24:20.926Z,19872
2017-08-31T09:25:20.970Z,17472
2017-08-31T09:27:21.333Z,13688
2017-08-31T09:28:21.081Z,19264
2017-08-31T09:29:21.107Z,13624
2017-08-31T09:30:21.466Z,11928
2017-08-31T09:31:21.491Z,14440
2017-08-31T09:32:20.894Z,11444
2017-08-31T09:33:21.240Z,11416
2017-08-31T09:34:20.951Z,11072
2017-08-31T09:35:35.920Z,10540
2017-08-31T09:36:21.662Z,10464
2017-08-31T09:37:21.379Z,10604
2017-08-31T09:38:21.732Z,14812
2017-08-31T09:39:21.757Z,18304
2017-08-31T09:41:21.824Z,12800
2017-08-31T09:42:21.858Z,19328
2017-08-31T09:43:21.602Z,19424
2017-08-31T09:44:36.525Z,19040
2017-08-31T09:45:21.657Z,18464
2017-08-31T09:46:21.679Z,18400
2017-08-31T09:47:36.623Z,11880
2017-08-31T09:48:21.758Z,11820
2017-08-31T09:49:22.093Z,18048
2017-08-31T09:50:22.110Z,12352
2017-08-31T09:52:21.867Z,18624
2017-08-31T09:53:22.226Z,12780
2017-08-31T09:54:22.248Z,18688
2017-08-31T09:55:22.307Z,18912
2017-08-31T09:56:22.319Z,18912
2017-08-31T09:57:21.732Z,18624
2017-08-31T09:58:37.008Z,12732
2017-08-31T09:59:22.095Z,11260
2017-08-31T10:00:22.140Z,10260
2017-08-31T10:01:22.470Z,10288
2017-08-31T10:02:22.226Z,12960
2017-08-31T10:03:22.567Z,13964
2017-08-31T10:04:22.287Z,13840
2017-08-31T10:05:22.301Z,19424
2017-08-31T10:06:22.365Z,13900
2017-08-31T10:07:37.317Z,13132
2017-08-31T10:08:37.349Z,12212
2017-08-31T10:09:22.831Z,11692
2017-08-31T10:10:22.473Z,11212
2017-08-31T10:11:22.517Z,10144
2017-08-31T10:12:22.866Z,9360
2017-08-31T10:13:37.505Z,10536
2017-08-31T10:14:22.630Z,11340
2017-08-31T10:15:22.637Z,12012
2017-08-31T10:16:22.988Z,11264
2017-08-31T10:17:37.638Z,9880
2017-08-31T10:18:22.754Z,9240
2017-08-31T10:19:22.795Z,8752
2017-08-31T10:20:22.854Z,9644
2017-08-31T10:21:23.162Z,10280
2017-08-31T10:22:23.180Z,11268
2017-08-31T10:23:37.850Z,11428
2017-08-31T10:24:22.948Z,11168
2017-08-31T10:25:23.292Z,9640
2017-08-31T10:26:23.320Z,8800
2017-08-31T10:27:22.735Z,7360
2017-08-31T10:28:23.381Z,5940
2017-08-31T10:29:23.109Z,5492
2017-08-31T10:30:23.480Z,5264
2017-08-31T10:31:23.498Z,4876
2017-08-31T10:32:37.833Z,4472
2017-08-31T10:33:23.550Z,4372
2017-08-31T10:34:22.961Z,4236
2017-08-31T10:35:23.301Z,4120
2017-08-31T10:36:23.329Z,4572
2017-08-31T10:37:23.383Z,6236
2017-08-31T10:38:38.032Z,7976
2017-08-31T10:39:23.737Z,8076
2017-08-31T10:40:23.168Z,8936
2017-08-31T10:41:23.185Z,8964
2017-08-31T10:42:38.466Z,8792
2017-08-31T10:43:23.868Z,9068
2017-08-31T10:44:23.284Z,9912
2017-08-31T10:45:23.951Z,9604
2017-08-31T10:46:23.953Z,8996
2017-08-31T10:47:23.695Z,8108
2017-08-31T10:48:24.025Z,7624
2017-08-31T10:49:23.440Z,7496
2017-08-31T10:50:24.077Z,7308
2017-08-31T10:51:23.811Z,7216
2017-08-31T10:52:23.208Z,7264
2017-08-31T10:53:23.880Z,7244
2017-08-31T10:54:38.825Z,7164
2017-08-31T10:55:23.634Z,7204
2017-08-31T10:56:24.286Z,7408
2017-08-31T10:57:23.975Z,7872
2017-08-31T10:58:24.341Z,8308
2017-08-31T10:59:24.059Z,9000
2017-08-31T11:00:24.095Z,9520
2017-08-31T11:01:24.447Z,9484
2017-08-31T11:02:23.847Z,9252
2017-08-31T11:03:24.497Z,9004
2017-08-31T11:04:24.886Z,8892
2017-08-31T11:05:24.247Z,9080
2017-08-31T11:06:39.326Z,10128
2017-08-31T11:07:24.632Z,10644
2017-08-31T11:08:24.644Z,11632
2017-08-31T11:09:24.776Z,13856
2017-08-31T11:10:39.403Z,11704
2017-08-31T11:11:24.852Z,10856
2017-08-31T11:12:24.906Z,10540
2017-08-31T11:13:24.929Z,10288
2017-08-31T11:14:24.841Z,10128
2017-08-31T11:15:39.167Z,10400
2017-08-31T11:16:25.076Z,11248
2017-08-31T11:17:25.281Z,11156
2017-08-31T11:18:25.084Z,10424
2017-08-31T11:19:25.096Z,10440
2017-08-31T11:20:25.205Z,10160
2017-08-31T11:21:24.445Z,11148
2017-08-31T11:22:25.305Z,12128
2017-08-31T11:23:25.224Z,12736
2017-08-31T11:25:25.241Z,12292
2017-08-31T11:26:39.867Z,10984
2017-08-31T11:27:26.403Z,10184
2017-08-31T11:28:25.655Z,9308
2017-08-31T11:29:25.916Z,9004
2017-08-31T11:30:40.278Z,8104
2017-08-31T11:31:26.048Z,8928
2017-08-31T11:32:25.492Z,9156
2017-08-31T11:33:25.608Z,9332
2017-08-31T11:34:26.142Z,8424
2017-08-31T11:35:25.899Z,9496
2017-08-31T11:36:25.872Z,8224
2017-08-31T11:37:26.053Z,8780
2017-08-31T11:38:25.398Z,9488
2017-08-31T11:39:25.833Z,8224
2017-08-31T11:40:25.657Z,7916
2017-08-31T11:41:25.697Z,7872
2017-08-31T11:42:40.420Z,8368
2017-08-31T11:43:25.752Z,9088
2017-08-31T11:44:25.770Z,8736
2017-08-31T11:45:25.855Z,8436
2017-08-31T11:46:40.472Z,8036
2017-08-31T11:47:40.491Z,7440
2017-08-31T11:48:25.713Z,7588
2017-08-31T11:49:25.624Z,8208
2017-08-31T11:50:25.776Z,8540
2017-08-31T11:51:25.695Z,9472
2017-08-31T11:52:25.733Z,8540
2017-08-31T11:53:25.770Z,9712
2017-08-31T11:54:25.773Z,8116
2017-08-31T11:55:25.626Z,7600
2017-08-31T11:56:25.724Z,7068
2017-08-31T11:57:26.192Z,7120
2017-08-31T11:58:40.518Z,8100
2017-08-31T11:59:26.360Z,8124
2017-08-31T12:00:40.276Z,9772
2017-08-31T12:01:26.414Z,9552
2017-08-31T12:02:26.600Z,8644
2017-08-31T12:03:26.485Z,7956
2017-08-31T12:04:25.769Z,7604
2017-08-31T12:05:25.819Z,7336
2017-08-31T12:06:40.446Z,7188
2017-08-31T12:07:26.181Z,7140
2017-08-31T12:08:25.580Z,7088
2017-08-31T12:09:26.270Z,7052
2017-08-31T12:10:26.063Z,6980
2017-08-31T12:11:26.421Z,6944
2017-08-31T12:12:26.351Z,6936
2017-08-31T12:13:41.298Z,6996
2017-08-31T12:14:26.929Z,7128
2017-08-31T12:15:26.754Z,7272
2017-08-31T12:16:26.469Z,7172
2017-08-31T12:17:26.504Z,7512
2017-08-31T12:18:27.006Z,7476
2017-08-31T12:19:26.896Z,7916
2017-08-31T12:20:26.600Z,7716
2017-08-31T12:21:26.734Z,6228
2017-08-31T12:22:26.969Z,6460
2017-08-31T12:23:26.693Z,7448
2017-08-31T12:24:27.038Z,6040
2017-08-31T12:25:26.869Z,6860
2017-08-31T12:26:27.196Z,7904
2017-08-31T12:27:27.255Z,5912
2017-08-31T12:28:26.936Z,6128
2017-08-31T12:29:27.180Z,6556
2017-08-31T12:30:27.324Z,8448
2017-08-31T12:31:27.343Z,8968
2017-08-31T12:32:27.295Z,8892
2017-08-31T12:33:27.301Z,9084
2017-08-31T12:34:27.336Z,8832
2017-08-31T12:35:27.398Z,7664
2017-08-31T12:36:27.395Z,7044
2017-08-31T12:37:27.406Z,7316
2017-08-31T12:38:27.455Z,7820
2017-08-31T12:39:27.498Z,8196
2017-08-31T12:40:27.715Z,8844
2017-08-31T12:41:27.547Z,10732
2017-08-31T12:42:27.567Z,10020
2017-08-31T12:43:27.700Z,9384
2017-08-31T12:44:27.632Z,9168
2017-08-31T12:45:41.973Z,6888
2017-08-31T12:46:27.496Z,6876
2017-08-31T12:47:41.720Z,6876
2017-08-31T12:48:27.558Z,7964
2017-08-31T12:49:42.189Z,7436
2017-08-31T12:50:27.916Z,7468
2017-08-31T12:51:27.977Z,7616
2017-08-31T12:52:27.988Z,7856
2017-08-31T12:54:27.941Z,7380
2017-08-31T12:55:27.679Z,6968
2017-08-31T12:56:27.702Z,7156
2017-08-31T12:57:27.508Z,7204
2017-08-31T13:00:27.816Z,4876
2017-08-31T13:01:42.459Z,3952
2017-08-31T13:02:28.350Z,3576
2017-08-31T13:03:27.759Z,3420
2017-08-31T13:06:28.386Z,4264
2017-08-31T13:07:28.330Z,4728
2017-08-31T13:08:28.151Z,4584
2017-08-31T13:09:27.775Z,4320
2017-08-31T13:10:27.903Z,3912
2017-08-31T13:11:28.249Z,3476
2017-08-31T13:12:42.480Z,3096
2017-08-31T13:13:27.904Z,2864
2017-08-31T13:14:28.248Z,3056
2017-08-31T13:15:28.298Z,3312
2017-08-31T13:16:28.624Z,3752
2017-08-31T13:17:43.245Z,3832
2017-08-31T13:18:42.970Z,3668
2017-08-31T13:19:28.387Z,3420
2017-08-31T13:21:43.373Z,2468
2017-08-31T13:22:43.114Z,2168
2017-08-31T13:23:28.492Z,2200
2017-08-31T13:24:28.511Z,2432
2017-08-31T13:25:43.589Z,3068
2017-08-31T13:26:28.877Z,3316
2017-08-31T13:27:28.932Z,3244
2017-08-31T13:28:28.947Z,2872
2017-08-31T13:29:28.995Z,2348
2017-08-31T13:30:29.005Z,1752
2017-08-31T13:31:29.144Z,1208
2017-08-31T13:32:28.937Z,888
2017-08-31T13:33:43.502Z,656
2017-08-31T13:34:29.133Z,684
2017-08-31T13:35:28.521Z,836
2017-08-31T13:36:29.182Z,1000
2017-08-31T13:37:29.295Z,1008
2017-08-31T13:38:43.850Z,1056
2017-08-31T13:39:29.146Z,1080
2017-08-31T13:40:29.518Z,1108
2017-08-31T13:41:29.337Z,1052
2017-08-31T13:42:29.037Z,1244
2017-08-31T13:43:29.042Z,1332
2017-08-31T13:44:29.088Z,1552
2017-08-31T13:45:29.453Z,1828
2017-08-31T13:46:29.296Z,1820
2017-08-31T13:47:29.178Z,1760
2017-08-31T13:48:44.135Z,1448
2017-08-31T13:49:29.225Z,1316
2017-08-31T13:50:29.287Z,1156
2017-08-31T13:51:29.616Z,1124
2017-08-31T13:52:29.733Z,944
2017-08-31T13:53:44.268Z,796
2017-08-31T13:54:29.763Z,728
2017-08-31T13:55:29.827Z,692
2017-08-31T13:56:44.349Z,684
2017-08-31T13:57:29.772Z,700
2017-08-31T13:58:29.807Z,696
2017-08-31T13:59:29.502Z,756
2017-08-31T14:00:29.646Z,852
2017-08-31T14:01:29.541Z,848
2017-08-31T14:02:29.899Z,864
2017-08-31T14:03:44.526Z,936
2017-08-31T14:04:44.566Z,1124
2017-08-31T14:05:44.638Z,1276
2017-08-31T14:06:30.017Z,1232
2017-08-31T14:07:29.412Z,1224
2017-08-31T14:08:44.769Z,1332
2017-08-31T14:09:44.531Z,1420
2017-08-31T14:11:30.152Z,1420
2017-08-31T14:12:29.978Z,1544
2017-08-31T14:13:29.877Z,1620
2017-08-31T14:14:30.332Z,1740
2017-08-31T14:15:30.246Z,1952
2017-08-31T14:18:30.342Z,2444
2017-08-31T14:19:30.055Z,2768
2017-08-31T14:21:30.387Z,3116
2017-08-31T14:22:44.753Z,2776
2017-08-31T14:23:30.664Z,2520
2017-08-31T14:24:30.698Z,2488
2017-08-31T14:25:44.866Z,2748
2017-08-31T14:26:30.749Z,2852
2017-08-31T14:27:30.477Z,3084
2017-08-31T14:28:30.600Z,3224